sensor_id;sensor_type;location;lat;lon;timestamp;temperature;humidity
326;DHT22;150;52.352;14.058;2022-09-20T00:01:30;11.70;49.70
326;DHT22;150;52.352;14.058;2022-09-20T00:03:59;11.60;49.60
326;DHT22;150;52.352;14.058;2022-09-20T00:06:27;11.60;50.20
326;DHT22;150;52.352;14.058;2022-09-20T00:08:54;11.60;50.00
326;DHT22;150;52.352;14.058;2022-09-20T00:11:22;11.70;50.00
326;DHT22;150;52.352;14.058;2022-09-20T00:13:51;11.70;50.20
326;DHT22;150;52.352;14.058;2022-09-20T00:16:23;11.70;50.10
326;DHT22;150;52.352;14.058;2022-09-20T00:18:52;11.70;49.90
326;DHT22;150;52.352;14.058;2022-09-20T00:21:21;11.80;49.80
326;DHT22;150;52.352;14.058;2022-09-20T00:23:48;11.70;49.60
326;DHT22;150;52.352;14.058;2022-09-20T00:26:15;11.70;49.70
326;DHT22;150;52.352;14.058;2022-09-20T00:28:42;11.60;49.60
326;DHT22;150;52.352;14.058;2022-09-20T00:31:10;11.70;50.10
326;DHT22;150;52.352;14.058;2022-09-20T00:33:37;11.60;49.90
326;DHT22;150;52.352;14.058;2022-09-20T00:36:23;11.60;50.00
326;DHT22;150;52.352;14.058;2022-09-20T00:38:54;11.60;50.00
326;DHT22;150;52.352;14.058;2022-09-20T00:41:20;11.50;50.10
326;DHT22;150;52.352;14.058;2022-09-20T00:43:47;11.50;50.40
326;DHT22;150;52.352;14.058;2022-09-20T00:46:21;11.50;50.50
326;DHT22;150;52.352;14.058;2022-09-20T00:48:50;11.50;50.60
326;DHT22;150;52.352;14.058;2022-09-20T00:51:24;11.40;50.70
326;DHT22;150;52.352;14.058;2022-09-20T00:53:53;11.40;50.40
326;DHT22;150;52.352;14.058;2022-09-20T00:56:23;11.40;51.00
326;DHT22;150;52.352;14.058;2022-09-20T00:59:00;11.40;50.70
326;DHT22;150;52.352;14.058;2022-09-20T01:01:30;11.40;50.60
326;DHT22;150;52.352;14.058;2022-09-20T01:03:57;11.40;50.20
326;DHT22;150;52.352;14.058;2022-09-20T01:06:26;11.40;50.60
326;DHT22;150;52.352;14.058;2022-09-20T01:08:55;11.40;50.20
326;DHT22;150;52.352;14.058;2022-09-20T01:11:24;11.30;50.50
326;DHT22;150;52.352;14.058;2022-09-20T01:13:50;11.30;50.40
326;DHT22;150;52.352;14.058;2022-09-20T01:16:17;11.40;50.40
326;DHT22;150;52.352;14.058;2022-09-20T01:18:45;11.30;50.30
326;DHT22;150;52.352;14.058;2022-09-20T01:21:13;11.30;50.30
326;DHT22;150;52.352;14.058;2022-09-20T01:23:50;11.30;50.30
326;DHT22;150;52.352;14.058;2022-09-20T01:26:57;11.40;50.20
326;DHT22;150;52.352;14.058;2022-09-20T01:29:50;11.40;49.90
326;DHT22;150;52.352;14.058;2022-09-20T01:32:24;11.40;49.40
326;DHT22;150;52.352;14.058;2022-09-20T01:34:57;11.40;49.30
326;DHT22;150;52.352;14.058;2022-09-20T01:37:26;11.40;49.00
326;DHT22;150;52.352;14.058;2022-09-20T01:40:02;11.40;48.90
326;DHT22;150;52.352;14.058;2022-09-20T01:42:37;11.30;48.40
326;DHT22;150;52.352;14.058;2022-09-20T01:45:12;11.30;48.80
326;DHT22;150;52.352;14.058;2022-09-20T01:47:43;11.30;48.80
326;DHT22;150;52.352;14.058;2022-09-20T01:50:22;11.20;48.40
326;DHT22;150;52.352;14.058;2022-09-20T01:53:25;11.30;48.80
326;DHT22;150;52.352;14.058;2022-09-20T01:56:26;11.20;48.70
326;DHT22;150;52.352;14.058;2022-09-20T02:02:33;11.30;48.40
326;DHT22;150;52.352;14.058;2022-09-20T02:08:07;11.20;48.30
326;DHT22;150;52.352;14.058;2022-09-20T02:10:44;11.10;47.40
326;DHT22;150;52.352;14.058;2022-09-20T02:13:26;11.10;47.50
326;DHT22;150;52.352;14.058;2022-09-20T02:16:17;11.10;47.40
326;DHT22;150;52.352;14.058;2022-09-20T02:19:01;11.10;47.20
326;DHT22;150;52.352;14.058;2022-09-20T02:21:37;11.10;47.40
326;DHT22;150;52.352;14.058;2022-09-20T02:24:15;11.10;47.00
326;DHT22;150;52.352;14.058;2022-09-20T02:26:54;11.10;46.50
326;DHT22;150;52.352;14.058;2022-09-20T02:29:32;11.00;46.60
326;DHT22;150;52.352;14.058;2022-09-20T02:32:16;11.00;46.90
326;DHT22;150;52.352;14.058;2022-09-20T02:35:19;11.00;47.40
326;DHT22;150;52.352;14.058;2022-09-20T02:37:58;11.00;47.60
326;DHT22;150;52.352;14.058;2022-09-20T02:40:43;10.90;47.40
326;DHT22;150;52.352;14.058;2022-09-20T02:43:19;10.80;47.50
326;DHT22;150;52.352;14.058;2022-09-20T02:45:55;10.80;47.80
326;DHT22;150;52.352;14.058;2022-09-20T02:48:30;10.80;47.80
326;DHT22;150;52.352;14.058;2022-09-20T02:51:06;10.70;48.20
326;DHT22;150;52.352;14.058;2022-09-20T02:53:38;10.80;48.30
326;DHT22;150;52.352;14.058;2022-09-20T02:56:16;10.70;48.20
326;DHT22;150;52.352;14.058;2022-09-20T02:58:50;10.70;48.30
326;DHT22;150;52.352;14.058;2022-09-20T03:01:29;10.80;48.60
326;DHT22;150;52.352;14.058;2022-09-20T03:04:06;10.80;48.20
326;DHT22;150;52.352;14.058;2022-09-20T03:06:42;10.80;48.20
326;DHT22;150;52.352;14.058;2022-09-20T03:09:20;10.80;47.90
326;DHT22;150;52.352;14.058;2022-09-20T03:12:01;10.70;47.60
326;DHT22;150;52.352;14.058;2022-09-20T03:14:34;10.70;47.80
326;DHT22;150;52.352;14.058;2022-09-20T03:17:10;10.70;47.90
326;DHT22;150;52.352;14.058;2022-09-20T03:20:03;10.60;47.90
326;DHT22;150;52.352;14.058;2022-09-20T03:22:40;10.60;48.20
326;DHT22;150;52.352;14.058;2022-09-20T03:28:19;10.50;48.50
326;DHT22;150;52.352;14.058;2022-09-20T03:30:55;10.40;48.50
326;DHT22;150;52.352;14.058;2022-09-20T03:33:33;10.30;49.20
326;DHT22;150;52.352;14.058;2022-09-20T03:36:12;10.30;49.30
326;DHT22;150;52.352;14.058;2022-09-20T03:38:57;10.30;49.60
326;DHT22;150;52.352;14.058;2022-09-20T03:41:49;10.30;49.30
326;DHT22;150;52.352;14.058;2022-09-20T03:44:37;10.30;49.30
326;DHT22;150;52.352;14.058;2022-09-20T03:47:13;10.40;49.70
326;DHT22;150;52.352;14.058;2022-09-20T03:49:56;10.30;49.50
326;DHT22;150;52.352;14.058;2022-09-20T03:52:42;10.30;49.70
326;DHT22;150;52.352;14.058;2022-09-20T03:55:30;10.30;49.90
326;DHT22;150;52.352;14.058;2022-09-20T03:58:25;10.20;49.80
326;DHT22;150;52.352;14.058;2022-09-20T04:01:08;10.20;50.30
326;DHT22;150;52.352;14.058;2022-09-20T04:03:47;10.20;50.90
326;DHT22;150;52.352;14.058;2022-09-20T04:06:33;10.10;50.30
326;DHT22;150;52.352;14.058;2022-09-20T04:09:33;10.10;50.40
326;DHT22;150;52.352;14.058;2022-09-20T04:12:09;10.20;50.60
326;DHT22;150;52.352;14.058;2022-09-20T04:14:43;10.20;50.70
326;DHT22;150;52.352;14.058;2022-09-20T04:17:24;10.20;51.00
326;DHT22;150;52.352;14.058;2022-09-20T04:20:00;10.20;51.10
326;DHT22;150;52.352;14.058;2022-09-20T04:22:29;10.30;50.90
326;DHT22;150;52.352;14.058;2022-09-20T04:25:01;10.30;50.70
326;DHT22;150;52.352;14.058;2022-09-20T04:27:34;10.30;50.50
326;DHT22;150;52.352;14.058;2022-09-20T04:30:06;10.30;50.60
326;DHT22;150;52.352;14.058;2022-09-20T04:32:40;10.40;50.70
326;DHT22;150;52.352;14.058;2022-09-20T04:35:29;10.40;50.40
326;DHT22;150;52.352;14.058;2022-09-20T04:38:17;10.40;50.40
326;DHT22;150;52.352;14.058;2022-09-20T04:41:07;10.40;50.10
326;DHT22;150;52.352;14.058;2022-09-20T04:44:05;10.40;50.40
326;DHT22;150;52.352;14.058;2022-09-20T04:50:12;10.40;50.30
326;DHT22;150;52.352;14.058;2022-09-20T04:55:55;10.40;49.90
326;DHT22;150;52.352;14.058;2022-09-20T04:58:37;10.40;50.40
326;DHT22;150;52.352;14.058;2022-09-20T05:07:26;10.30;50.60
326;DHT22;150;52.352;14.058;2022-09-20T05:10:14;10.30;50.30
326;DHT22;150;52.352;14.058;2022-09-20T05:13:01;10.30;50.50
326;DHT22;150;52.352;14.058;2022-09-20T05:15:40;10.40;50.30
326;DHT22;150;52.352;14.058;2022-09-20T05:18:27;10.30;50.00
326;DHT22;150;52.352;14.058;2022-09-20T05:21:11;10.40;50.40
326;DHT22;150;52.352;14.058;2022-09-20T05:23:54;10.40;50.50
326;DHT22;150;52.352;14.058;2022-09-20T05:26:36;10.40;50.40
326;DHT22;150;52.352;14.058;2022-09-20T05:29:10;10.40;51.10
326;DHT22;150;52.352;14.058;2022-09-20T05:31:42;10.40;51.20
326;DHT22;150;52.352;14.058;2022-09-20T05:34:18;10.50;51.10
326;DHT22;150;52.352;14.058;2022-09-20T05:36:57;10.60;51.30
326;DHT22;150;52.352;14.058;2022-09-20T05:39:33;10.70;51.20
326;DHT22;150;52.352;14.058;2022-09-20T05:42:13;10.70;51.30
326;DHT22;150;52.352;14.058;2022-09-20T05:44:52;10.80;51.80
326;DHT22;150;52.352;14.058;2022-09-20T05:47:28;10.90;51.80
326;DHT22;150;52.352;14.058;2022-09-20T05:50:09;11.00;51.30
326;DHT22;150;52.352;14.058;2022-09-20T05:52:50;11.00;51.10
326;DHT22;150;52.352;14.058;2022-09-20T05:55:40;11.10;51.20
326;DHT22;150;52.352;14.058;2022-09-20T05:58:22;11.10;51.30
326;DHT22;150;52.352;14.058;2022-09-20T06:00:56;11.10;51.40
326;DHT22;150;52.352;14.058;2022-09-20T06:03:33;11.20;51.60
326;DHT22;150;52.352;14.058;2022-09-20T06:06:05;11.20;52.10
326;DHT22;150;52.352;14.058;2022-09-20T06:12:03;11.40;52.00
326;DHT22;150;52.352;14.058;2022-09-20T06:14:38;11.50;51.80
326;DHT22;150;52.352;14.058;2022-09-20T06:17:15;11.50;51.50
326;DHT22;150;52.352;14.058;2022-09-20T06:19:49;11.60;51.90
326;DHT22;150;52.352;14.058;2022-09-20T06:22:21;11.70;51.40
326;DHT22;150;52.352;14.058;2022-09-20T06:24:57;11.90;52.10
326;DHT22;150;52.352;14.058;2022-09-20T06:27:29;12.00;51.90
326;DHT22;150;52.352;14.058;2022-09-20T06:30:00;12.10;51.50
326;DHT22;150;52.352;14.058;2022-09-20T06:32:30;12.20;51.30
326;DHT22;150;52.352;14.058;2022-09-20T06:34:58;12.20;51.50
326;DHT22;150;52.352;14.058;2022-09-20T06:37:38;12.30;51.00
326;DHT22;150;52.352;14.058;2022-09-20T06:40:32;12.30;51.10
326;DHT22;150;52.352;14.058;2022-09-20T06:43:17;12.30;51.20
326;DHT22;150;52.352;14.058;2022-09-20T06:45:44;12.30;51.30
326;DHT22;150;52.352;14.058;2022-09-20T06:48:12;12.40;50.90
326;DHT22;150;52.352;14.058;2022-09-20T06:50:40;12.40;51.40
326;DHT22;150;52.352;14.058;2022-09-20T06:53:13;12.40;51.00
326;DHT22;150;52.352;14.058;2022-09-20T06:55:43;12.40;50.90
326;DHT22;150;52.352;14.058;2022-09-20T06:58:10;12.40;51.20
326;DHT22;150;52.352;14.058;2022-09-20T07:00:37;12.40;51.60
326;DHT22;150;52.352;14.058;2022-09-20T07:03:04;12.60;52.30
326;DHT22;150;52.352;14.058;2022-09-20T07:05:31;12.60;51.50
326;DHT22;150;52.352;14.058;2022-09-20T07:07:58;12.80;52.10
326;DHT22;150;52.352;14.058;2022-09-20T07:10:26;12.80;51.70
326;DHT22;150;52.352;14.058;2022-09-20T07:12:56;12.80;51.80
326;DHT22;150;52.352;14.058;2022-09-20T07:15:23;12.80;52.30
326;DHT22;150;52.352;14.058;2022-09-20T07:17:50;13.00;52.70
326;DHT22;150;52.352;14.058;2022-09-20T07:20:17;13.20;52.60
326;DHT22;150;52.352;14.058;2022-09-20T07:22:45;13.30;51.70
326;DHT22;150;52.352;14.058;2022-09-20T07:25:12;13.50;51.30
326;DHT22;150;52.352;14.058;2022-09-20T07:27:38;13.40;49.80
326;DHT22;150;52.352;14.058;2022-09-20T07:30:09;13.40;50.00
326;DHT22;150;52.352;14.058;2022-09-20T07:32:37;13.60;50.80
326;DHT22;150;52.352;14.058;2022-09-20T07:35:05;13.70;49.70
326;DHT22;150;52.352;14.058;2022-09-20T07:37:32;13.90;49.80
326;DHT22;150;52.352;14.058;2022-09-20T07:39:59;14.00;49.10
326;DHT22;150;52.352;14.058;2022-09-20T07:42:25;14.20;48.90
326;DHT22;150;52.352;14.058;2022-09-20T07:44:54;14.30;46.80
326;DHT22;150;52.352;14.058;2022-09-20T07:47:22;14.30;46.80
326;DHT22;150;52.352;14.058;2022-09-20T07:49:49;14.40;47.00
326;DHT22;150;52.352;14.058;2022-09-20T07:52:17;14.50;47.80
326;DHT22;150;52.352;14.058;2022-09-20T07:54:44;14.60;47.40
326;DHT22;150;52.352;14.058;2022-09-20T07:57:11;14.70;47.20
326;DHT22;150;52.352;14.058;2022-09-20T07:59:38;14.70;47.20
326;DHT22;150;52.352;14.058;2022-09-20T08:02:04;14.70;47.20
326;DHT22;150;52.352;14.058;2022-09-20T08:04:32;14.80;47.20
326;DHT22;150;52.352;14.058;2022-09-20T08:06:59;14.80;46.90
326;DHT22;150;52.352;14.058;2022-09-20T08:09:26;14.90;46.30
326;DHT22;150;52.352;14.058;2022-09-20T08:11:52;14.90;46.20
326;DHT22;150;52.352;14.058;2022-09-20T08:14:20;15.00;46.00
326;DHT22;150;52.352;14.058;2022-09-20T08:16:48;15.00;46.40
326;DHT22;150;52.352;14.058;2022-09-20T08:19:17;15.10;47.00
326;DHT22;150;52.352;14.058;2022-09-20T08:21:47;15.20;46.20
326;DHT22;150;52.352;14.058;2022-09-20T08:24:34;15.30;46.20
326;DHT22;150;52.352;14.058;2022-09-20T08:27:00;15.40;45.40
326;DHT22;150;52.352;14.058;2022-09-20T08:29:27;15.50;44.40
326;DHT22;150;52.352;14.058;2022-09-20T08:31:54;15.60;44.60
326;DHT22;150;52.352;14.058;2022-09-20T08:34:23;15.90;45.70
326;DHT22;150;52.352;14.058;2022-09-20T08:36:51;16.00;44.40
326;DHT22;150;52.352;14.058;2022-09-20T08:39:21;16.00;43.60
326;DHT22;150;52.352;14.058;2022-09-20T08:41:53;16.10;42.40
326;DHT22;150;52.352;14.058;2022-09-20T08:44:23;16.30;42.40
326;DHT22;150;52.352;14.058;2022-09-20T08:47:01;16.30;40.90
326;DHT22;150;52.352;14.058;2022-09-20T08:49:30;16.30;41.00
326;DHT22;150;52.352;14.058;2022-09-20T08:51:59;16.30;39.10
326;DHT22;150;52.352;14.058;2022-09-20T08:54:30;16.30;38.60
326;DHT22;150;52.352;14.058;2022-09-20T08:57:00;16.50;39.00
326;DHT22;150;52.352;14.058;2022-09-20T08:59:27;16.60;38.10
326;DHT22;150;52.352;14.058;2022-09-20T09:01:55;16.70;37.40
326;DHT22;150;52.352;14.058;2022-09-20T09:04:27;16.70;36.50
326;DHT22;150;52.352;14.058;2022-09-20T09:06:58;16.70;36.80
326;DHT22;150;52.352;14.058;2022-09-20T09:09:26;16.70;36.40
326;DHT22;150;52.352;14.058;2022-09-20T09:11:55;16.70;35.00
326;DHT22;150;52.352;14.058;2022-09-20T09:14:25;16.60;35.30
326;DHT22;150;52.352;14.058;2022-09-20T09:17:11;16.50;34.20
326;DHT22;150;52.352;14.058;2022-09-20T09:19:43;16.60;34.80
326;DHT22;150;52.352;14.058;2022-09-20T09:22:17;16.70;34.10
326;DHT22;150;52.352;14.058;2022-09-20T09:24:45;17.00;35.20
326;DHT22;150;52.352;14.058;2022-09-20T09:27:15;17.20;34.80
326;DHT22;150;52.352;14.058;2022-09-20T09:29:48;17.40;32.70
326;DHT22;150;52.352;14.058;2022-09-20T09:32:22;17.30;30.80
326;DHT22;150;52.352;14.058;2022-09-20T09:34:49;17.30;30.80
326;DHT22;150;52.352;14.058;2022-09-20T09:37:26;17.30;30.00
326;DHT22;150;52.352;14.058;2022-09-20T09:40:13;17.30;30.10
326;DHT22;150;52.352;14.058;2022-09-20T09:42:48;17.40;29.60
326;DHT22;150;52.352;14.058;2022-09-20T09:45:27;17.50;29.80
326;DHT22;150;52.352;14.058;2022-09-20T09:47:55;17.60;28.80
326;DHT22;150;52.352;14.058;2022-09-20T09:50:25;17.70;28.80
326;DHT22;150;52.352;14.058;2022-09-20T09:53:02;17.90;28.90
326;DHT22;150;52.352;14.058;2022-09-20T09:58:33;18.10;27.50
326;DHT22;150;52.352;14.058;2022-09-20T10:01:05;17.90;27.70
326;DHT22;150;52.352;14.058;2022-09-20T10:03:48;18.10;28.20
326;DHT22;150;52.352;14.058;2022-09-20T10:06:22;18.10;28.30
326;DHT22;150;52.352;14.058;2022-09-20T10:09:05;18.10;27.30
326;DHT22;150;52.352;14.058;2022-09-20T10:11:43;18.20;26.80
326;DHT22;150;52.352;14.058;2022-09-20T10:14:25;18.30;27.90
326;DHT22;150;52.352;14.058;2022-09-20T10:17:08;18.40;27.80
326;DHT22;150;52.352;14.058;2022-09-20T10:19:47;18.50;26.20
326;DHT22;150;52.352;14.058;2022-09-20T10:22:21;18.40;26.40
326;DHT22;150;52.352;14.058;2022-09-20T10:24:59;18.40;26.80
326;DHT22;150;52.352;14.058;2022-09-20T10:27:39;18.60;26.00
326;DHT22;150;52.352;14.058;2022-09-20T10:30:09;18.80;25.30
326;DHT22;150;52.352;14.058;2022-09-20T10:32:55;18.90;25.20
326;DHT22;150;52.352;14.058;2022-09-20T10:35:27;18.90;23.90
326;DHT22;150;52.352;14.058;2022-09-20T10:38:10;19.00;24.80
326;DHT22;150;52.352;14.058;2022-09-20T10:40:46;19.00;24.40
326;DHT22;150;52.352;14.058;2022-09-20T10:43:48;19.10;24.60
326;DHT22;150;52.352;14.058;2022-09-20T10:46:22;19.10;24.30
326;DHT22;150;52.352;14.058;2022-09-20T10:49:01;19.00;24.30
326;DHT22;150;52.352;14.058;2022-09-20T10:51:35;18.90;23.30
326;DHT22;150;52.352;14.058;2022-09-20T10:54:11;18.90;23.20
326;DHT22;150;52.352;14.058;2022-09-20T10:56:48;18.60;23.20
326;DHT22;150;52.352;14.058;2022-09-20T10:59:26;18.40;24.70
326;DHT22;150;52.352;14.058;2022-09-20T11:05:28;18.20;26.50
326;DHT22;150;52.352;14.058;2022-09-20T11:08:01;18.10;24.70
326;DHT22;150;52.352;14.058;2022-09-20T11:10:33;18.00;24.50
326;DHT22;150;52.352;14.058;2022-09-20T11:13:05;18.00;24.00
326;DHT22;150;52.352;14.058;2022-09-20T11:15:35;17.90;24.50
326;DHT22;150;52.352;14.058;2022-09-20T11:18:10;17.80;24.70
326;DHT22;150;52.352;14.058;2022-09-20T11:20:42;17.80;23.80
326;DHT22;150;52.352;14.058;2022-09-20T11:23:14;17.80;24.50
326;DHT22;150;52.352;14.058;2022-09-20T11:25:44;17.80;24.60
326;DHT22;150;52.352;14.058;2022-09-20T11:28:17;17.90;23.90
326;DHT22;150;52.352;14.058;2022-09-20T11:30:52;18.00;24.30
326;DHT22;150;52.352;14.058;2022-09-20T11:33:22;18.00;23.00
326;DHT22;150;52.352;14.058;2022-09-20T11:35:53;18.00;24.10
326;DHT22;150;52.352;14.058;2022-09-20T11:38:25;17.90;23.40
326;DHT22;150;52.352;14.058;2022-09-20T11:40:54;17.70;23.90
326;DHT22;150;52.352;14.058;2022-09-20T11:43:24;17.60;24.40
326;DHT22;150;52.352;14.058;2022-09-20T11:45:58;17.50;24.20
326;DHT22;150;52.352;14.058;2022-09-20T11:48:28;17.20;24.80
326;DHT22;150;52.352;14.058;2022-09-20T11:51:28;17.10;25.40
326;DHT22;150;52.352;14.058;2022-09-20T11:54:09;16.80;25.70
326;DHT22;150;52.352;14.058;2022-09-20T11:56:39;16.50;26.20
326;DHT22;150;52.352;14.058;2022-09-20T11:59:26;16.30;27.50
326;DHT22;150;52.352;14.058;2022-09-20T12:01:55;16.20;27.70
326;DHT22;150;52.352;14.058;2022-09-20T12:04:26;16.00;28.40
326;DHT22;150;52.352;14.058;2022-09-20T12:07:00;16.00;29.00
326;DHT22;150;52.352;14.058;2022-09-20T12:09:30;16.10;28.50
326;DHT22;150;52.352;14.058;2022-09-20T12:12:00;16.20;28.50
326;DHT22;150;52.352;14.058;2022-09-20T12:14:40;16.40;27.90
326;DHT22;150;52.352;14.058;2022-09-20T12:20:59;16.70;26.70
326;DHT22;150;52.352;14.058;2022-09-20T12:26:37;17.30;26.50
326;DHT22;150;52.352;14.058;2022-09-20T12:32:31;17.60;25.40
326;DHT22;150;52.352;14.058;2022-09-20T12:34:59;17.60;26.20
326;DHT22;150;52.352;14.058;2022-09-20T12:37:26;17.80;26.00
326;DHT22;150;52.352;14.058;2022-09-20T12:42:27;18.30;26.90
326;DHT22;150;52.352;14.058;2022-09-20T12:44:59;18.40;26.50
326;DHT22;150;52.352;14.058;2022-09-20T12:47:29;18.30;27.20
326;DHT22;150;52.352;14.058;2022-09-20T12:49:58;18.30;28.50
326;DHT22;150;52.352;14.058;2022-09-20T12:52:51;18.30;27.40
326;DHT22;150;52.352;14.058;2022-09-20T12:55:45;18.30;26.60
326;DHT22;150;52.352;14.058;2022-09-20T12:58:36;18.20;28.10
326;DHT22;150;52.352;14.058;2022-09-20T13:01:30;17.90;24.90
326;DHT22;150;52.352;14.058;2022-09-20T13:07:34;17.60;25.00
326;DHT22;150;52.352;14.058;2022-09-20T13:10:13;17.40;26.00
326;DHT22;150;52.352;14.058;2022-09-20T13:12:42;17.20;26.20
326;DHT22;150;52.352;14.058;2022-09-20T13:15:16;17.10;27.00
326;DHT22;150;52.352;14.058;2022-09-20T13:17:45;17.10;27.20
326;DHT22;150;52.352;14.058;2022-09-20T13:20:18;17.00;26.20
326;DHT22;150;52.352;14.058;2022-09-20T13:22:47;16.90;27.00
326;DHT22;150;52.352;14.058;2022-09-20T13:25:15;16.90;27.20
326;DHT22;150;52.352;14.058;2022-09-20T13:27:48;17.00;26.50
326;DHT22;150;52.352;14.058;2022-09-20T13:30:18;17.00;26.80
326;DHT22;150;52.352;14.058;2022-09-20T13:32:46;17.20;27.00
326;DHT22;150;52.352;14.058;2022-09-20T13:35:14;17.20;27.00
326;DHT22;150;52.352;14.058;2022-09-20T13:37:54;17.40;26.50
326;DHT22;150;52.352;14.058;2022-09-20T13:40:24;17.40;27.30
326;DHT22;150;52.352;14.058;2022-09-20T13:42:59;17.50;27.20
326;DHT22;150;52.352;14.058;2022-09-20T13:45:27;17.40;27.60
326;DHT22;150;52.352;14.058;2022-09-20T13:47:57;17.40;27.70
326;DHT22;150;52.352;14.058;2022-09-20T13:50:27;17.30;28.50
326;DHT22;150;52.352;14.058;2022-09-20T13:52:57;17.30;28.50
326;DHT22;150;52.352;14.058;2022-09-20T13:55:27;17.20;28.50
326;DHT22;150;52.352;14.058;2022-09-20T13:57:57;17.00;28.40
326;DHT22;150;52.352;14.058;2022-09-20T14:00:24;16.90;29.30
326;DHT22;150;52.352;14.058;2022-09-20T14:02:52;16.70;29.90
326;DHT22;150;52.352;14.058;2022-09-20T14:05:22;16.80;30.50
326;DHT22;150;52.352;14.058;2022-09-20T14:07:50;16.90;29.80
326;DHT22;150;52.352;14.058;2022-09-20T14:10:31;16.90;29.20
326;DHT22;150;52.352;14.058;2022-09-20T14:12:59;17.00;30.00
326;DHT22;150;52.352;14.058;2022-09-20T14:15:31;17.00;30.20
326;DHT22;150;52.352;14.058;2022-09-20T14:18:00;17.00;30.10
326;DHT22;150;52.352;14.058;2022-09-20T14:20:29;17.00;29.90
326;DHT22;150;52.352;14.058;2022-09-20T14:22:55;16.90;30.40
326;DHT22;150;52.352;14.058;2022-09-20T14:25:24;16.70;30.90
326;DHT22;150;52.352;14.058;2022-09-20T14:28:06;16.60;31.30
326;DHT22;150;52.352;14.058;2022-09-20T14:30:40;16.50;32.00
326;DHT22;150;52.352;14.058;2022-09-20T14:33:14;16.30;32.90
326;DHT22;150;52.352;14.058;2022-09-20T14:35:46;15.90;33.60
326;DHT22;150;52.352;14.058;2022-09-20T14:38:14;15.70;34.90
326;DHT22;150;52.352;14.058;2022-09-20T14:40:43;15.60;35.50
326;DHT22;150;52.352;14.058;2022-09-20T14:43:24;15.50;35.10
326;DHT22;150;52.352;14.058;2022-09-20T14:45:53;15.20;34.90
326;DHT22;150;52.352;14.058;2022-09-20T14:48:33;15.10;35.50
326;DHT22;150;52.352;14.058;2022-09-20T14:51:21;15.00;35.40
326;DHT22;150;52.352;14.058;2022-09-20T14:53:51;15.00;36.00
326;DHT22;150;52.352;14.058;2022-09-20T14:56:29;15.00;36.00
326;DHT22;150;52.352;14.058;2022-09-20T14:59:18;14.90;35.70
326;DHT22;150;52.352;14.058;2022-09-20T15:01:54;14.70;36.00
326;DHT22;150;52.352;14.058;2022-09-20T15:04:23;14.50;36.40
326;DHT22;150;52.352;14.058;2022-09-20T15:06:52;14.50;37.30
326;DHT22;150;52.352;14.058;2022-09-20T15:09:19;14.50;37.10
326;DHT22;150;52.352;14.058;2022-09-20T15:11:57;14.60;37.60
326;DHT22;150;52.352;14.058;2022-09-20T15:14:25;14.50;37.10
326;DHT22;150;52.352;14.058;2022-09-20T15:16:51;14.50;37.70
326;DHT22;150;52.352;14.058;2022-09-20T15:19:18;14.60;38.10
326;DHT22;150;52.352;14.058;2022-09-20T15:21:45;14.70;38.30
326;DHT22;150;52.352;14.058;2022-09-20T15:24:11;14.90;38.20
326;DHT22;150;52.352;14.058;2022-09-20T15:26:39;15.00;36.90
326;DHT22;150;52.352;14.058;2022-09-20T15:29:05;15.10;36.90
326;DHT22;150;52.352;14.058;2022-09-20T15:31:33;15.20;37.00
326;DHT22;150;52.352;14.058;2022-09-20T15:34:00;15.40;36.40
326;DHT22;150;52.352;14.058;2022-09-20T15:36:27;15.60;35.20
326;DHT22;150;52.352;14.058;2022-09-20T15:38:56;15.70;33.90
326;DHT22;150;52.352;14.058;2022-09-20T15:41:23;15.70;33.40
326;DHT22;150;52.352;14.058;2022-09-20T15:43:49;15.70;33.30
326;DHT22;150;52.352;14.058;2022-09-20T15:46:17;15.70;32.50
326;DHT22;150;52.352;14.058;2022-09-20T15:48:46;15.70;32.50
326;DHT22;150;52.352;14.058;2022-09-20T15:51:13;15.50;34.00
326;DHT22;150;52.352;14.058;2022-09-20T15:53:41;15.50;34.10
326;DHT22;150;52.352;14.058;2022-09-20T15:56:14;15.40;34.60
326;DHT22;150;52.352;14.058;2022-09-20T15:58:44;15.30;34.70
326;DHT22;150;52.352;14.058;2022-09-20T16:01:11;15.30;35.00
326;DHT22;150;52.352;14.058;2022-09-20T16:03:39;15.40;35.50
326;DHT22;150;52.352;14.058;2022-09-20T16:06:08;15.50;34.60
326;DHT22;150;52.352;14.058;2022-09-20T16:08:36;15.60;35.40
326;DHT22;150;52.352;14.058;2022-09-20T16:11:03;15.70;34.90
326;DHT22;150;52.352;14.058;2022-09-20T16:13:30;15.80;34.60
326;DHT22;150;52.352;14.058;2022-09-20T16:15:59;15.80;34.10
326;DHT22;150;52.352;14.058;2022-09-20T16:18:26;15.90;34.50
326;DHT22;150;52.352;14.058;2022-09-20T16:21:14;16.00;34.40
326;DHT22;150;52.352;14.058;2022-09-20T16:23:43;16.00;33.50
326;DHT22;150;52.352;14.058;2022-09-20T16:26:11;16.00;33.60
326;DHT22;150;52.352;14.058;2022-09-20T16:28:38;16.00;34.20
326;DHT22;150;52.352;14.058;2022-09-20T16:31:06;16.00;34.30
326;DHT22;150;52.352;14.058;2022-09-20T16:33:32;15.90;34.40
326;DHT22;150;52.352;14.058;2022-09-20T16:36:00;15.90;34.40
326;DHT22;150;52.352;14.058;2022-09-20T16:38:28;15.90;34.50
326;DHT22;150;52.352;14.058;2022-09-20T16:40:54;15.90;34.70
326;DHT22;150;52.352;14.058;2022-09-20T16:43:21;15.80;35.00
326;DHT22;150;52.352;14.058;2022-09-20T16:45:57;15.80;34.70
326;DHT22;150;52.352;14.058;2022-09-20T16:48:24;15.70;34.80
326;DHT22;150;52.352;14.058;2022-09-20T16:50:54;15.70;35.00
326;DHT22;150;52.352;14.058;2022-09-20T16:53:21;15.70;35.30
326;DHT22;150;52.352;14.058;2022-09-20T16:55:49;15.70;35.40
326;DHT22;150;52.352;14.058;2022-09-20T16:58:16;15.60;35.70
326;DHT22;150;52.352;14.058;2022-09-20T17:00:44;15.60;35.90
326;DHT22;150;52.352;14.058;2022-09-20T17:03:11;15.60;35.90
326;DHT22;150;52.352;14.058;2022-09-20T17:05:37;15.50;36.00
326;DHT22;150;52.352;14.058;2022-09-20T17:08:06;15.40;36.30
326;DHT22;150;52.352;14.058;2022-09-20T17:10:34;15.40;36.40
326;DHT22;150;52.352;14.058;2022-09-20T17:13:02;15.30;36.60
326;DHT22;150;52.352;14.058;2022-09-20T17:15:31;15.20;36.90
326;DHT22;150;52.352;14.058;2022-09-20T17:17:59;15.20;37.00
326;DHT22;150;52.352;14.058;2022-09-20T17:20:29;15.10;36.90
326;DHT22;150;52.352;14.058;2022-09-20T17:22:56;15.00;36.90
326;DHT22;150;52.352;14.058;2022-09-20T17:25:23;14.90;37.30
326;DHT22;150;52.352;14.058;2022-09-20T17:27:51;14.80;38.50
326;DHT22;150;52.352;14.058;2022-09-20T17:30:19;14.80;38.10
326;DHT22;150;52.352;14.058;2022-09-20T17:32:46;14.70;38.10
326;DHT22;150;52.352;14.058;2022-09-20T17:35:14;14.70;38.20
326;DHT22;150;52.352;14.058;2022-09-20T17:37:42;14.60;38.40
326;DHT22;150;52.352;14.058;2022-09-20T17:40:09;14.50;38.70
326;DHT22;150;52.352;14.058;2022-09-20T17:42:36;14.50;38.90
326;DHT22;150;52.352;14.058;2022-09-20T17:45:04;14.40;39.00
326;DHT22;150;52.352;14.058;2022-09-20T17:47:32;14.30;39.30